Time;durP1;ratioP1;P1;durP2;ratioP2;P2;SDS_P1;SDS_P2;PMS_P1;PMS_P2;Temp;Humidity;BMP_temperature;BMP_pressure;BME280_temperature;BME280_humidity;BME280_pressure;Samples;Min_cycle;Max_cycle;Signal;HPM_P1;HPM_P2
2022/12/24 00:01:36;;;;;;;25.30;13.60;;;;;;;4.11;76.48;98082.34;103544;1291;99226;-68
2022/12/24 00:04:07;;;;;;;25.60;13.20;;;;;;;4.10;76.66;98081.39;103491;1297;108295;-67
2022/12/24 00:06:35;;;;;;;26.60;14.60;;;;;;;4.07;76.76;98082.23;103560;1291;99316;-67
2022/12/24 00:09:06;;;;;;;26.10;13.20;;;;;;;4.06;76.79;98074.98;103555;1295;99204;-66
2022/12/24 00:11:34;;;;;;;25.10;13.70;;;;;;;4.06;76.73;98073.36;103444;1292;112970;-67
2022/12/24 00:14:01;;;;;;;26.10;14.30;;;;;;;4.05;76.75;98072.73;103467;1299;99344;-68
2022/12/24 00:16:32;;;;;;;28.20;15.20;;;;;;;4.04;76.70;98071.39;103493;1291;107129;-67
2022/12/24 00:19:00;;;;;;;25.20;13.30;;;;;;;4.03;76.71;98077.73;103380;1299;99380;-67
2022/12/24 00:21:29;;;;;;;25.90;14.10;;;;;;;4.04;76.71;98079.84;103446;1292;97656;-67
2022/12/24 00:24:02;;;;;;;26.20;14.20;;;;;;;4.04;76.75;98085.11;103528;1299;112723;-67
2022/12/24 00:26:34;;;;;;;26.60;14.80;;;;;;;4.01;76.80;98082.08;103536;1299;99317;-67
2022/12/24 00:29:06;;;;;;;25.00;14.30;;;;;;;4.00;76.71;98073.03;103508;1299;108112;-67
2022/12/24 00:31:34;;;;;;;24.80;13.30;;;;;;;3.99;76.77;98073.96;103389;1298;100461;-67
2022/12/24 00:34:02;;;;;;;25.20;13.70;;;;;;;3.98;76.75;98069.13;103544;1291;99232;-68
2022/12/24 00:36:30;;;;;;;25.80;14.30;;;;;;;3.95;76.77;98062.79;103522;1297;113386;-67
2022/12/24 00:39:01;;;;;;;24.20;13.20;;;;;;;3.94;76.86;98058.86;103580;1291;99221;-67
2022/12/24 00:41:32;;;;;;;25.10;14.40;;;;;;;3.93;76.77;98055.05;103456;1297;108609;-67
2022/12/24 00:44:05;;;;;;;26.40;14.30;;;;;;;3.93;76.81;98054.20;103470;1295;99210;-67
2022/12/24 00:46:37;;;;;;;24.40;12.60;;;;;;;3.93;76.83;98059.23;103520;1299;97003;-67
2022/12/24 00:49:10;;;;;;;26.60;14.00;;;;;;;3.94;76.73;98065.53;103528;1297;112208;-67
2022/12/24 00:51:41;;;;;;;26.10;13.50;;;;;;;3.93;76.85;98059.58;103538;1299;99320;-67
2022/12/24 00:54:11;;;;;;;25.30;13.20;;;;;;;3.94;76.78;98063.05;103529;1292;107885;-67
2022/12/24 00:56:39;;;;;;;26.10;13.60;;;;;;;3.94;76.79;98064.42;103533;1299;99316;-67
2022/12/24 00:59:10;;;;;;;24.10;12.80;;;;;;;3.96;76.79;98064.01;103505;1298;99194;-67
2022/12/24 01:01:38;;;;;;;24.50;12.70;;;;;;;3.97;76.80;98063.77;103497;1299;113094;-67
2022/12/24 01:06:58;;;;;;;26.10;13.90;;;;;;;3.96;76.97;98060.30;103501;1297;107987;-67
2022/12/24 01:09:27;;;;;;;25.50;13.20;;;;;;;3.97;76.83;98061.46;103495;1299;99120;-67
2022/12/24 01:11:54;;;;;;;23.10;12.70;;;;;;;3.97;76.76;98057.77;103519;1299;99206;-68
2022/12/24 01:14:22;;;;;;;25.40;13.20;;;;;;;3.98;76.80;98057.34;103421;1292;113193;-66
2022/12/24 01:16:51;;;;;;;25.50;12.70;;;;;;;3.98;76.71;98059.29;103573;1288;99241;-66
2022/12/24 01:19:21;;;;;;;25.30;13.20;;;;;;;3.96;76.72;98060.48;103540;1287;108040;-67
2022/12/24 01:21:52;;;;;;;25.00;13.00;;;;;;;3.96;76.95;98061.19;103485;1295;99207;-66
2022/12/24 01:24:26;;;;;;;23.90;12.30;;;;;;;3.95;77.06;98054.23;103528;1292;96630;-66
2022/12/24 01:26:54;;;;;;;25.40;12.20;;;;;;;3.96;76.91;98048.19;103523;1298;112194;-67
2022/12/24 01:29:22;;;;;;;23.90;12.50;;;;;;;3.97;76.99;98049.69;103557;1297;99348;-66
2022/12/24 01:31:50;;;;;;;24.40;12.30;;;;;;;3.99;76.96;98050.66;103503;1301;107753;-66
2022/12/24 01:34:18;;;;;;;24.80;12.40;;;;;;;4.00;76.95;98052.89;103441;1296;96500;-66
2022/12/24 01:36:47;;;;;;;26.10;12.50;;;;;;;4.01;76.78;98055.09;103562;1296;99300;-66
2022/12/24 01:39:17;;;;;;;24.00;12.40;;;;;;;4.02;77.02;98056.23;103440;1295;112206;-66
2022/12/24 01:44:39;;;;;;;24.50;12.10;;;;;;;4.08;76.96;98061.84;103421;1297;108119;-66
2022/12/24 01:47:28;;;;;;;24.00;11.90;;;;;;;4.10;77.07;98059.42;103415;1293;99335;-68
2022/12/24 01:50:12;;;;;;;24.80;11.70;;;;;;;4.10;77.11;98054.70;103438;1288;99277;-65
2022/12/24 01:52:43;;;;;;;23.00;11.30;;;;;;;4.08;77.20;98056.39;103460;1299;113526;-67
2022/12/24 01:55:17;;;;;;;22.80;11.20;;;;;;;4.07;77.24;98057.38;103511;1297;99300;-67
2022/12/24 01:57:52;;;;;;;26.70;12.40;;;;;;;4.05;77.00;98055.86;103476;1295;107257;-66
2022/12/24 02:00:20;;;;;;;23.10;11.80;;;;;;;4.05;77.07;98051.36;103491;1297;99314;-66
2022/12/24 02:02:54;;;;;;;24.00;12.20;;;;;;;4.02;77.11;98050.96;103545;1299;99248;-66
2022/12/24 02:05:22;;;;;;;22.60;11.10;;;;;;;4.02;77.07;98050.64;103444;1297;112463;-66
2022/12/24 02:07:53;;;;;;;22.70;11.30;;;;;;;4.03;77.06;98051.62;103422;1301;99209;-66
2022/12/24 02:10:24;;;;;;;24.40;11.50;;;;;;;4.04;77.13;98047.92;103403;1297;108230;-67
2022/12/24 02:12:55;;;;;;;22.40;11.60;;;;;;;4.02;77.07;98045.89;103513;1285;98634;-66
2022/12/24 02:15:23;;;;;;;22.80;11.00;;;;;;;4.00;77.04;98047.43;103518;1296;99203;-67
2022/12/24 02:18:11;;;;;;;23.40;11.30;;;;;;;3.99;77.03;98040.30;103549;1298;112833;-67
2022/12/24 02:20:51;;;;;;;22.90;11.60;;;;;;;3.97;77.09;98037.58;103530;1301;99235;-66
2022/12/24 02:23:39;;;;;;;23.30;11.30;;;;;;;3.95;77.28;98034.75;103513;1299;108077;-66
2022/12/24 02:26:31;;;;;;;22.40;11.20;;;;;;;3.92;77.27;98035.27;103473;1297;99225;-66
2022/12/24 02:29:22;;;;;;;23.60;11.00;;;;;;;3.91;77.35;98035.35;103457;1299;99210;-66
2022/12/24 02:32:02;;;;;;;22.10;11.30;;;;;;;3.90;77.32;98036.31;103470;1296;113101;-66
2022/12/24 02:34:36;;;;;;;22.70;10.70;;;;;;;3.89;77.45;98035.66;103537;1292;99249;-65
2022/12/24 02:37:29;;;;;;;23.00;11.10;;;;;;;3.87;77.15;98036.31;103549;1295;108037;-66
2022/12/24 02:40:11;;;;;;;23.20;10.80;;;;;;;3.88;77.27;98036.91;103541;1290;99281;-65
2022/12/24 02:42:56;;;;;;;22.50;11.30;;;;;;;3.89;77.40;98028.64;103565;1297;99221;-66
2022/12/24 02:45:33;;;;;;;23.10;11.60;;;;;;;3.91;77.15;98023.27;103514;1295;113643;-66
2022/12/24 02:48:03;;;;;;;23.70;11.20;;;;;;;3.92;77.40;98018.11;103566;1298;99570;-67
2022/12/24 02:50:31;;;;;;;22.40;11.20;;;;;;;3.91;77.28;98017.44;103534;1297;108000;-67
2022/12/24 02:53:00;;;;;;;21.50;11.10;;;;;;;3.92;77.27;98012.66;103508;1301;99338;-66
2022/12/24 02:55:28;;;;;;;24.90;10.80;;;;;;;3.92;77.30;98013.20;103526;1299;99204;-68
2022/12/24 02:58:18;;;;;;;22.90;10.50;;;;;;;3.93;77.37;98009.99;103491;1297;113244;-67
2022/12/24 03:00:49;;;;;;;19.30;9.30;;;;;;;3.93;77.30;98005.05;103510;1299;99922;-67
2022/12/24 03:03:34;;;;;;;;;;;;;;;3.93;77.36;98002.95;103559;1298;108076;-67
2022/12/24 03:06:05;;;;;;;23.20;9.90;;;;;;;3.90;77.46;98004.73;103507;1296;99207;-66
2022/12/24 03:09:05;;;;;;;23.00;11.10;;;;;;;3.89;77.58;98006.02;103567;1297;99375;-67
2022/12/24 03:11:43;;;;;;;20.00;8.80;;;;;;;3.87;77.36;98005.05;103509;1298;111912;-67
2022/12/24 03:14:15;;;;;;;20.90;10.10;;;;;;;3.87;77.41;98006.27;103535;1299;99225;-67
2022/12/24 03:16:46;;;;;;;22.30;10.20;;;;;;;3.87;77.44;98012.29;103551;1299;107851;-66
2022/12/24 03:19:18;;;;;;;21.60;10.30;;;;;;;3.87;77.54;98014.34;103579;1288;96514;-67
2022/12/24 03:21:49;;;;;;;21.10;9.30;;;;;;;3.88;77.30;98012.20;103592;1297;99242;-67
2022/12/24 03:24:21;;;;;;;18.90;8.70;;;;;;;3.87;77.38;98016.64;103556;1295;113122;-67
2022/12/24 03:26:52;;;;;;;19.50;8.50;;;;;;;3.85;77.52;98017.98;103544;1292;99303;-65
2022/12/24 03:29:22;;;;;;;20.00;8.70;;;;;;;3.86;77.57;98016.72;103540;1292;107895;-65
2022/12/24 03:32:01;;;;;;;21.70;9.30;;;;;;;3.86;77.46;98015.31;103562;1298;99355;-66
2022/12/24 03:34:32;;;;;;;19.70;8.00;;;;;;;3.86;77.37;98010.91;103492;1299;97930;-67
2022/12/24 03:37:00;;;;;;;18.00;8.30;;;;;;;3.86;77.31;98008.08;103545;1291;112924;-65
2022/12/24 03:39:28;;;;;;;20.10;9.10;;;;;;;3.86;77.40;98008.13;103591;1295;97583;-66
2022/12/24 03:41:57;;;;;;;18.70;8.90;;;;;;;3.85;77.36;98009.06;103555;1297;108068;-66
2022/12/24 03:44:24;;;;;;;18.80;8.30;;;;;;;3.87;77.48;98007.36;103459;1294;99910;-66
2022/12/24 03:46:53;;;;;;;19.40;8.60;;;;;;;3.87;77.56;98004.56;103562;1299;99223;-66
2022/12/24 03:49:21;;;;;;;19.60;9.10;;;;;;;3.87;77.55;98006.14;103562;1299;112709;-66
2022/12/24 03:51:48;;;;;;;17.00;7.40;;;;;;;3.87;77.52;98003.83;103492;1291;99200;-66
2022/12/24 03:54:17;;;;;;;20.70;8.90;;;;;;;3.88;77.51;98004.33;103485;1296;108221;-66
2022/12/24 03:56:47;;;;;;;18.90;8.10;;;;;;;3.86;77.44;97999.02;103551;1298;99201;-67
2022/12/24 03:59:21;;;;;;;19.00;8.00;;;;;;;3.85;77.47;98000.79;103539;1298;99282;-67
2022/12/24 04:01:49;;;;;;;18.90;8.60;;;;;;;3.81;77.55;97996.84;103550;1291;111728;-66
2022/12/24 04:04:20;;;;;;;18.10;7.60;;;;;;;3.79;77.62;97995.08;103549;1299;99273;-71
2022/12/24 04:06:48;;;;;;;16.10;6.90;;;;;;;3.77;77.52;97998.69;103515;1299;107941;-67
2022/12/24 04:09:16;;;;;;;15.90;7.40;;;;;;;3.78;77.39;97996.17;103523;1299;97761;-69
2022/12/24 04:11:44;;;;;;;15.70;6.30;;;;;;;3.79;77.59;97996.81;103501;1298;96560;-68
2022/12/24 04:14:12;;;;;;;16.90;7.10;;;;;;;3.81;77.77;97999.83;103550;1291;113033;-66
2022/12/24 04:16:40;;;;;;;15.70;6.60;;;;;;;3.82;77.73;98002.61;103535;1295;99220;-66
2022/12/24 04:19:10;;;;;;;15.10;6.50;;;;;;;3.81;77.58;97995.09;103534;1298;107120;-67
2022/12/24 04:21:38;;;;;;;16.10;6.50;;;;;;;3.81;77.64;97988.06;103533;1299;99286;-66
2022/12/24 04:24:09;;;;;;;16.20;6.70;;;;;;;3.81;77.80;97986.66;103551;1295;98360;-66
2022/12/24 04:26:40;;;;;;;16.30;7.30;;;;;;;3.82;77.83;97988.23;103556;1295;113065;-65
2022/12/24 04:29:08;;;;;;;14.20;5.90;;;;;;;3.83;77.64;97985.88;103513;1305;99210;-68
2022/12/24 04:31:38;;;;;;;15.50;6.80;;;;;;;3.82;77.85;97983.79;103572;1293;107752;-67
2022/12/24 04:34:06;;;;;;;13.50;6.10;;;;;;;3.82;77.63;97980.33;103542;1299;99897;-67
2022/12/24 04:36:34;;;;;;;15.60;6.80;;;;;;;3.83;77.73;97980.78;103554;1289;97999;-67
2022/12/24 04:39:03;;;;;;;17.60;7.10;;;;;;;3.85;77.88;97974.52;103553;1292;112727;-67
2022/12/24 04:41:31;;;;;;;16.40;6.90;;;;;;;3.86;77.82;97965.15;103403;1285;99134;-67
2022/12/24 04:43:59;;;;;;;15.40;7.00;;;;;;;3.86;77.70;97966.02;104083;1292;107350;-67
2022/12/24 04:46:30;;;;;;;16.80;7.00;;;;;;;3.86;77.78;97964.95;103421;1298;189418;-67
2022/12/24 04:48:59;;;;;;;17.60;7.30;;;;;;;3.87;77.68;97968.56;103567;1299;99887;-66
2022/12/24 04:51:29;;;;;;;16.10;7.10;;;;;;;3.89;77.78;97965.65;103470;1288;113017;-66
2022/12/24 04:53:58;;;;;;;16.30;6.80;;;;;;;3.92;77.77;97966.90;103444;1291;96562;-66
2022/12/24 04:56:32;;;;;;;15.40;6.50;;;;;;;3.93;77.81;97967.73;103419;1292;108135;-67
2022/12/24 04:59:03;;;;;;;19.40;7.50;;;;;;;3.92;77.78;97963.74;103401;1291;99310;-67
2022/12/24 05:01:32;;;;;;;16.90;6.90;;;;;;;3.90;77.70;97957.51;103341;1299;96620;-66
2022/12/24 05:04:01;;;;;;;19.80;7.20;;;;;;;3.90;77.69;97952.29;103413;1291;112629;-66
2022/12/24 05:06:33;;;;;;;16.70;7.60;;;;;;;3.88;77.59;97947.46;103408;1292;99347;-66
2022/12/24 05:09:01;;;;;;;21.60;8.60;;;;;;;3.90;77.69;97949.31;103418;1299;108324;-66
2022/12/24 05:11:33;;;;;;;20.00;7.90;;;;;;;3.88;77.95;97944.33;103477;1299;99429;-66
2022/12/24 05:14:01;;;;;;;20.10;7.20;;;;;;;3.87;77.62;97942.29;103462;1295;99198;-66
2022/12/24 05:16:29;;;;;;;19.60;7.80;;;;;;;3.86;77.73;97942.68;103409;1297;112989;-66
2022/12/24 05:19:02;;;;;;;15.80;6.70;;;;;;;3.86;77.82;97944.79;103480;1291;99758;-66
2022/12/24 05:21:32;;;;;;;19.90;7.40;;;;;;;3.87;77.94;97942.14;103448;1292;107005;-66
2022/12/24 05:26:56;;;;;;;17.80;7.50;;;;;;;3.86;77.91;97936.20;103520;1298;99247;-67
2022/12/24 05:29:24;;;;;;;17.50;7.50;;;;;;;3.83;77.86;97938.84;103402;1302;112749;-67
2022/12/24 05:31:52;;;;;;;15.80;7.20;;;;;;;3.79;77.83;97938.40;103470;1290;99211;-67
2022/12/24 05:34:20;;;;;;;17.40;7.40;;;;;;;3.78;77.76;97940.25;103449;1299;107889;-66
2022/12/24 05:36:51;;;;;;;16.50;7.70;;;;;;;3.77;77.92;97942.71;103422;1297;99169;-67
2022/12/24 05:39:19;;;;;;;17.60;7.40;;;;;;;3.79;77.70;97937.89;103437;1290;99224;-67
2022/12/24 05:41:47;;;;;;;19.10;7.60;;;;;;;3.81;78.07;97940.74;103424;1291;113135;-65
2022/12/24 05:44:17;;;;;;;19.70;7.60;;;;;;;3.82;77.83;97934.88;103453;1292;99183;-68
2022/12/24 05:46:46;;;;;;;18.60;7.90;;;;;;;3.84;77.90;97937.03;103435;1292;106943;-69
2022/12/24 05:49:15;;;;;;;19.40;8.10;;;;;;;3.87;77.94;97937.37;103340;1298;99650;-66
2022/12/24 05:51:43;;;;;;;18.60;7.90;;;;;;;3.87;77.94;97934.89;103359;1296;96556;-66
2022/12/24 05:54:11;;;;;;;20.40;8.20;;;;;;;3.88;77.89;97935.71;103292;1292;113157;-66
2022/12/24 05:56:39;;;;;;;18.00;7.10;;;;;;;3.87;77.80;97941.02;103314;1295;98982;-66
2022/12/24 05:59:08;;;;;;;15.90;6.10;;;;;;;3.89;77.97;97943.90;104706;1299;108022;-67
2022/12/24 06:01:35;;;;;;;16.80;6.80;;;;;;;3.90;78.07;97944.90;103463;1291;97589;-67
2022/12/24 06:04:04;;;;;;;18.40;7.30;;;;;;;3.91;78.06;97937.65;103525;1299;99247;-66
2022/12/24 06:06:34;;;;;;;18.20;7.10;;;;;;;3.91;77.86;97940.46;103340;1295;113039;-66
2022/12/24 06:09:05;;;;;;;16.80;6.60;;;;;;;3.92;78.02;97943.20;103388;1295;99036;-65
2022/12/24 06:11:35;;;;;;;14.30;5.50;;;;;;;3.94;78.15;97947.83;103383;1292;108144;-66
2022/12/24 06:14:03;;;;;;;14.00;5.40;;;;;;;3.95;77.99;97948.79;103414;1291;99304;-66
2022/12/24 06:16:31;;;;;;;12.20;5.30;;;;;;;3.98;77.97;97951.42;103467;1291;99171;-66
2022/12/24 06:19:00;;;;;;;14.60;6.00;;;;;;;4.00;78.03;97953.77;104427;1291;113108;-67
2022/12/24 06:21:28;;;;;;;13.60;5.50;;;;;;;4.02;78.13;97955.55;103379;1292;99262;-65
2022/12/24 06:23:56;;;;;;;12.50;5.30;;;;;;;4.02;77.96;97957.09;103346;1297;107704;-67
2022/12/24 06:26:25;;;;;;;11.10;4.90;;;;;;;4.03;78.02;97962.16;104003;1291;99331;-67
2022/12/24 06:28:53;;;;;;;11.90;5.30;;;;;;;4.04;78.05;97959.84;105204;1295;97324;-68
2022/12/24 06:31:22;;;;;;;12.80;4.90;;;;;;;4.05;78.16;97960.27;105272;1292;113106;-67
2022/12/24 06:33:53;;;;;;;12.60;4.80;;;;;;;4.06;78.12;97961.42;103858;1293;99298;-67
2022/12/24 06:36:25;;;;;;;8.20;3.60;;;;;;;4.09;78.08;97964.94;103439;1291;107896;-68
2022/12/24 06:38:55;;;;;;;6.90;3.80;;;;;;;4.13;78.05;97967.66;103547;1284;99237;-68
2022/12/24 06:41:25;;;;;;;7.50;3.20;;;;;;;4.16;78.17;97966.76;103522;1297;99366;-69
2022/12/24 06:43:53;;;;;;;4.70;2.70;;;;;;;4.20;78.18;97972.67;103470;1291;112822;-69
2022/12/24 06:46:24;;;;;;;5.70;2.80;;;;;;;4.23;78.17;97972.48;103422;1298;99229;-68
2022/12/24 06:48:53;;;;;;;6.80;3.10;;;;;;;4.25;78.21;97972.36;103482;1291;107531;-67
2022/12/24 06:51:23;;;;;;;5.40;2.90;;;;;;;4.26;78.18;97974.52;103498;1291;99231;-68
2022/12/24 06:53:51;;;;;;;6.50;3.20;;;;;;;4.28;78.27;97973.70;103527;1298;99258;-68
2022/12/24 06:56:20;;;;;;;5.90;2.90;;;;;;;4.31;78.17;97975.63;103557;1291;112944;-68
2022/12/24 06:58:50;;;;;;;5.00;2.90;;;;;;;4.32;78.17;97972.56;103504;1291;99371;-68
2022/12/24 07:01:23;;;;;;;6.00;2.90;;;;;;;4.35;78.27;97975.59;103525;1299;107741;-68
2022/12/24 07:03:51;;;;;;;8.00;3.20;;;;;;;4.37;78.26;97975.62;103475;1291;97599;-68
2022/12/24 07:06:28;;;;;;;5.40;3.20;;;;;;;4.39;78.27;97976.52;103434;1291;96604;-67
2022/12/24 07:08:56;;;;;;;6.10;3.30;;;;;;;4.41;78.37;97976.40;103439;1290;112983;-69
2022/12/24 07:11:27;;;;;;;6.00;3.20;;;;;;;4.43;78.36;97979.83;103552;1295;97538;-68
2022/12/24 07:13:55;;;;;;;7.80;3.20;;;;;;;4.43;78.34;97982.23;103533;1297;108069;-67
2022/12/24 07:16:24;;;;;;;8.30;3.50;;;;;;;4.45;78.36;97986.31;103529;1291;99224;-68
2022/12/24 07:18:55;;;;;;;4.90;3.30;;;;;;;4.47;78.22;97986.58;103543;1292;99252;-67
2022/12/24 07:21:23;;;;;;;8.60;3.70;;;;;;;4.49;78.25;97994.69;103467;1291;113833;-68
2022/12/24 07:23:51;;;;;;;7.20;3.30;;;;;;;4.52;78.44;97995.75;103511;1297;99930;-66
2022/12/24 07:26:19;;;;;;;6.00;3.10;;;;;;;4.54;78.38;97996.61;103496;1291;108105;-67
2022/12/24 07:28:50;;;;;;;8.30;3.40;;;;;;;4.57;78.31;97997.31;103460;1299;99287;-67
2022/12/24 07:31:18;;;;;;;6.30;3.30;;;;;;;4.60;78.37;98000.08;103524;1299;96694;-66
2022/12/24 07:33:49;;;;;;;9.00;4.30;;;;;;;4.64;78.41;98001.61;103468;1299;113156;-67
2022/12/24 07:36:22;;;;;;;9.00;3.80;;;;;;;4.66;78.35;98006.96;103517;1291;99256;-68
2022/12/24 07:38:51;;;;;;;6.00;3.40;;;;;;;4.69;78.27;98009.75;103478;1299;107207;-67
2022/12/24 07:41:21;;;;;;;6.80;3.20;;;;;;;4.72;78.32;98013.58;103411;1291;99249;-68
2022/12/24 07:43:49;;;;;;;8.20;4.00;;;;;;;4.74;78.31;98021.14;103514;1291;99209;-68
2022/12/24 07:46:17;;;;;;;8.90;3.90;;;;;;;4.76;78.30;98016.27;103563;1297;112098;-67
2022/12/24 07:48:48;;;;;;;8.90;4.20;;;;;;;4.78;78.36;98022.49;103524;1292;99261;-68
2022/12/24 07:51:16;;;;;;;9.10;4.10;;;;;;;4.79;78.25;98019.61;103495;1299;108076;-67
2022/12/24 07:53:46;;;;;;;12.90;4.00;;;;;;;4.81;78.23;98024.23;103489;1299;99199;-68
2022/12/24 07:56:17;;;;;;;11.20;4.50;;;;;;;4.83;78.26;98019.54;103497;1299;99205;-68
2022/12/24 07:58:45;;;;;;;13.10;5.50;;;;;;;4.84;78.30;98021.71;103428;1291;112755;-69
2022/12/24 08:01:13;;;;;;;16.60;6.90;;;;;;;4.86;78.39;98021.94;103448;1299;99289;-67
2022/12/24 08:03:47;;;;;;;20.70;8.40;;;;;;;4.88;78.39;98016.54;103457;1298;108110;-68
2022/12/24 08:06:23;;;;;;;23.00;9.90;;;;;;;4.91;78.19;98015.67;103475;1299;99250;-67
2022/12/24 08:08:51;;;;;;;20.20;7.90;;;;;;;4.91;78.40;98016.52;103481;1285;96577;-67
2022/12/24 08:11:19;;;;;;;19.10;6.70;;;;;;;4.94;78.24;98023.56;103501;1291;113085;-67
2022/12/24 08:13:47;;;;;;;19.10;7.30;;;;;;;4.95;78.40;98023.30;103477;1299;99238;-66
2022/12/24 08:16:15;;;;;;;19.30;7.20;;;;;;;4.95;78.40;98026.48;103576;1291;108124;-68
2022/12/24 08:18:46;;;;;;;16.40;6.20;;;;;;;4.98;78.27;98034.38;103527;1291;99203;-67
2022/12/24 08:21:17;;;;;;;14.30;5.20;;;;;;;4.98;78.31;98031.88;103572;1288;99206;-67
2022/12/24 08:23:48;;;;;;;21.20;8.60;;;;;;;4.97;78.33;98037.73;103543;1299;112549;-68
2022/12/24 08:26:16;;;;;;;19.40;8.30;;;;;;;4.98;78.27;98034.86;103559;1298;96511;-67
2022/12/24 08:28:44;;;;;;;16.90;5.70;;;;;;;5.00;78.51;98038.79;103474;1297;107774;-68
2022/12/24 08:31:14;;;;;;;16.90;5.80;;;;;;;5.02;78.45;98036.70;103495;1285;99216;-67
2022/12/24 08:33:47;;;;;;;11.80;4.80;;;;;;;5.05;78.43;98039.86;103491;1291;99213;-69
2022/12/24 08:36:15;;;;;;;10.60;4.40;;;;;;;5.08;78.67;98043.41;103515;1285;113124;-67
2022/12/24 08:38:44;;;;;;;11.50;4.60;;;;;;;5.11;78.58;98044.59;103442;1293;99315;-67
2022/12/24 08:41:12;;;;;;;12.10;4.90;;;;;;;5.13;78.68;98045.33;103379;1285;110401;-67
2022/12/24 08:43:39;;;;;;;10.10;4.60;;;;;;;5.15;78.62;98046.91;103409;1295;99262;-68
2022/12/24 08:46:11;;;;;;;8.40;4.30;;;;;;;5.18;78.57;98049.86;103471;1291;99225;-69
2022/12/24 08:48:42;;;;;;;11.80;5.30;;;;;;;5.22;78.65;98053.88;103490;1291;113170;-67
2022/12/24 08:51:12;;;;;;;11.50;5.20;;;;;;;5.24;78.59;98056.55;103490;1291;99231;-66
2022/12/24 08:53:41;;;;;;;11.70;5.60;;;;;;;5.27;78.84;98060.02;103427;1292;108086;-68
2022/12/24 08:56:12;;;;;;;12.90;5.20;;;;;;;5.29;78.69;98054.33;103346;1302;99392;-68
2022/12/24 08:58:40;;;;;;;11.80;4.80;;;;;;;5.30;78.57;98056.66;103431;1292;99324;-68
2022/12/24 09:01:13;;;;;;;10.30;4.70;;;;;;;5.31;78.71;98054.65;103445;1297;113012;-67
2022/12/24 09:03:45;;;;;;;9.80;4.80;;;;;;;5.33;78.70;98058.36;103513;1291;99680;-67
2022/12/24 09:06:16;;;;;;;11.40;5.00;;;;;;;5.36;78.78;98065.04;103443;1291;107545;-68
2022/12/24 09:08:44;;;;;;;11.20;5.20;;;;;;;5.37;78.81;98064.45;103468;1291;99246;-68
2022/12/24 09:11:19;;;;;;;11.40;5.00;;;;;;;5.37;78.63;98060.92;103599;1298;99229;-68
2022/12/24 09:13:47;;;;;;;13.60;5.70;;;;;;;5.41;78.97;98061.40;103515;1297;112231;-67
2022/12/24 09:16:18;;;;;;;12.80;5.30;;;;;;;5.43;78.85;98058.24;103557;1291;99227;-67
2022/12/24 09:18:48;;;;;;;13.90;5.80;;;;;;;5.46;78.77;98059.66;103396;1291;108110;-68
2022/12/24 09:21:17;;;;;;;15.50;6.10;;;;;;;5.49;78.85;98058.54;103454;1292;96523;-68
2022/12/24 09:23:48;;;;;;;15.20;6.30;;;;;;;5.54;78.79;98064.23;103509;1282;99692;-68
2022/12/24 09:26:22;;;;;;;9.50;4.90;;;;;;;5.56;78.82;98064.73;103437;1291;112598;-69
2022/12/24 09:28:53;;;;;;;13.70;5.90;;;;;;;5.59;78.71;98066.85;103543;1291;99356;-67
2022/12/24 09:31:21;;;;;;;13.20;5.80;;;;;;;5.61;78.72;98067.77;103480;1285;108136;-69
2022/12/24 09:33:52;;;;;;;12.90;6.00;;;;;;;5.64;78.68;98070.18;103502;1291;98290;-68
2022/12/24 09:36:23;;;;;;;16.40;6.80;;;;;;;5.69;78.81;98067.64;103512;1299;99208;-67
2022/12/24 09:38:53;;;;;;;17.00;6.40;;;;;;;5.72;78.80;98068.44;103379;1288;113147;-68
2022/12/24 09:41:40;;;;;;;16.00;6.50;;;;;;;5.79;78.77;98069.51;103439;1292;99354;-67
2022/12/24 09:44:20;;;;;;;15.00;6.30;;;;;;;5.88;78.93;98071.41;103435;1291;108108;-69
2022/12/24 09:46:53;;;;;;;15.20;6.30;;;;;;;5.94;78.83;98069.04;103461;1291;99389;-72
2022/12/24 09:49:36;;;;;;;14.90;6.40;;;;;;;5.97;78.68;98067.78;103491;1291;99249;-67
2022/12/24 09:52:09;;;;;;;16.40;6.60;;;;;;;6.02;78.89;98072.20;103433;1291;112169;-67
2022/12/24 09:54:44;;;;;;;16.00;7.10;;;;;;;6.06;78.92;98068.41;103446;1293;99297;-67
2022/12/24 09:57:29;;;;;;;18.30;7.20;;;;;;;6.08;78.95;98071.27;103510;1291;108141;-68
2022/12/24 09:59:57;;;;;;;15.80;6.60;;;;;;;6.11;78.87;98073.48;103501;1298;99353;-67
2022/12/24 10:02:25;;;;;;;16.30;6.70;;;;;;;6.14;78.92;98075.25;103343;1292;99420;-67
2022/12/24 10:04:59;;;;;;;18.20;7.10;;;;;;;6.17;78.90;98078.91;103377;1292;110498;-68
2022/12/24 10:07:29;;;;;;;14.00;6.80;;;;;;;6.21;79.01;98075.48;103361;1285;99213;-69
2022/12/24 10:10:16;;;;;;;17.40;7.00;;;;;;;6.24;78.99;98080.19;103435;1291;108055;-68
2022/12/24 10:13:22;;;;;;;16.20;6.50;;;;;;;6.28;79.05;98078.68;103457;1289;99182;-70
2022/12/24 10:16:19;;;;;;;16.70;7.10;;;;;;;6.31;78.98;98076.73;103359;1294;99301;-67
2022/12/24 10:19:12;;;;;;;16.90;7.00;;;;;;;6.35;79.00;98079.23;103438;1288;112631;-68
2022/12/24 10:21:59;;;;;;;18.40;7.80;;;;;;;6.37;79.10;98082.23;103310;1299;99324;-68
2022/12/24 10:24:56;;;;;;;16.60;7.50;;;;;;;6.38;79.00;98079.85;103470;1285;108113;-67
2022/12/24 10:27:34;;;;;;;16.90;7.50;;;;;;;6.41;79.15;98079.17;103503;1298;99976;-68
2022/12/24 10:30:19;;;;;;;19.50;7.80;;;;;;;6.44;79.06;98078.82;103532;1297;99309;-67
2022/12/24 10:32:52;;;;;;;16.30;7.60;;;;;;;6.47;79.13;98077.89;103358;1295;112658;-68
2022/12/24 10:35:25;;;;;;;;;;;;;;;6.50;79.25;98081.18;103425;1297;99846;-67
2022/12/24 10:37:57;;;;;;;17.50;7.40;;;;;;;6.51;79.21;98089.36;103480;1291;107672;-68
2022/12/24 10:40:36;;;;;;;17.10;7.20;;;;;;;6.54;79.13;98086.30;103399;1291;99133;-68
2022/12/24 10:43:21;;;;;;;18.70;8.40;;;;;;;6.58;79.26;98085.73;103449;1291;99937;-68
2022/12/24 10:46:32;;;;;;;20.30;8.80;;;;;;;6.61;79.30;98086.36;103405;1295;112565;-67
2022/12/24 10:49:11;;;;;;;19.80;9.80;;;;;;;6.63;79.35;98089.77;103541;1290;99195;-68
2022/12/24 10:52:11;;;;;;;21.90;10.70;;;;;;;6.65;79.13;98089.84;103453;1295;107540;-67
2022/12/24 10:55:18;;;;;;;20.60;10.20;;;;;;;6.62;79.17;98088.46;103492;1296;99186;-68
2022/12/24 10:57:59;;;;;;;19.90;8.40;;;;;;;6.60;79.28;98086.46;103518;1295;97667;-67
2022/12/24 11:00:31;;;;;;;18.50;8.60;;;;;;;6.61;79.13;98091.81;103488;1291;112031;-68
2022/12/24 11:03:33;;;;;;;21.20;8.50;;;;;;;6.62;79.26;98091.20;103411;1291;97563;-67
2022/12/24 11:06:19;;;;;;;;;;;;;;;6.64;79.03;98092.31;103422;1291;105854;-68
2022/12/24 11:08:47;;;;;;;19.00;7.70;;;;;;;6.65;79.38;98088.04;103493;1291;99626;-68
2022/12/24 11:11:22;;;;;;;14.40;6.60;;;;;;;6.68;79.36;98085.17;103476;1298;99200;-68
2022/12/24 11:13:50;;;;;;;12.10;5.00;;;;;;;6.69;79.34;98085.07;103505;1291;113204;-68
2022/12/24 11:16:36;;;;;;;14.10;6.00;;;;;;;6.72;79.31;98084.55;103515;1291;96552;-68
2022/12/24 11:19:14;;;;;;;15.30;6.20;;;;;;;6.76;79.30;98082.50;103499;1291;108049;-68
2022/12/24 11:21:46;;;;;;;15.10;6.10;;;;;;;6.78;79.23;98079.51;103461;1291;99145;-68
2022/12/24 11:24:34;;;;;;;15.50;6.40;;;;;;;6.80;79.33;98085.02;103414;1295;99222;-67
2022/12/24 11:27:37;;;;;;;16.20;7.40;;;;;;;6.84;79.53;98082.46;103435;1296;112535;-68
2022/12/24 11:30:14;;;;;;;17.00;6.90;;;;;;;6.88;79.43;98090.44;103231;1299;99243;-67
2022/12/24 11:32:46;;;;;;;18.60;7.70;;;;;;;6.91;79.49;98094.61;103447;1297;107189;-68
2022/12/24 11:35:25;;;;;;;19.20;7.50;;;;;;;6.93;79.51;98091.30;103454;1299;99423;-67
2022/12/24 11:37:59;;;;;;;16.10;7.40;;;;;;;6.95;79.37;98092.55;103382;1297;101563;-68
2022/12/24 11:40:36;;;;;;;14.20;6.40;;;;;;;6.98;79.49;98097.43;103413;1298;113193;-68
2022/12/24 11:43:14;;;;;;;18.20;7.80;;;;;;;7.02;79.64;98098.23;103403;1291;99237;-67
2022/12/24 11:45:55;;;;;;;19.40;7.80;;;;;;;7.05;79.48;98099.25;103303;1292;106951;-67
2022/12/24 11:48:26;;;;;;;17.50;6.90;;;;;;;7.07;79.61;98100.69;103271;1295;99263;-68
2022/12/24 11:51:01;;;;;;;14.40;6.50;;;;;;;7.10;79.50;98100.61;103795;1291;99231;-66
2022/12/24 11:53:52;;;;;;;18.10;7.50;;;;;;;7.13;79.45;98101.95;103387;1292;112316;-67
2022/12/24 11:56:45;;;;;;;17.10;6.80;;;;;;;7.18;79.58;98100.45;103486;1291;96525;-68